| time (UTC) | temp C | wind direction | speed KPH | gust KPH | rain 1hr cm | rain 24hr cm | rain mn cm | humidity % | barometer mb |
| 20260509045402 | 32 | 340 | 8.0 | 59.5 | 0.00 | 2.34 | 0.71 | 54 | 1009.0 |
| 20260509045203 | 32 | 340 | 8.0 | 59.5 | 0.00 | 2.34 | 0.71 | 54 | 1009.0 |
| 20260509043022 | 31 | 7 | 12.9 | 62.8 | 0.00 | 2.34 | 0.71 | 57 | 1009.0 |
| 20260509042818 | 31 | 7 | 12.9 | 62.8 | 0.00 | 2.34 | 0.71 | 57 | 1009.0 |
| 20260509042618 | 31 | 7 | 12.9 | 62.8 | 0.00 | 2.34 | 0.71 | 57 | 1009.0 |
| 20260509042418 | 31 | 7 | 12.9 | 62.8 | 0.00 | 2.34 | 0.71 | 57 | 1009.0 |
| 20260509042219 | 31 | 7 | 12.9 | 62.8 | 0.00 | 2.34 | 0.71 | 57 | 1009.0 |
| 20260509041818 | 31 | 7 | 12.9 | 62.8 | 0.00 | 2.34 | 0.71 | 57 | 1009.0 |
| 20260509041618 | 31 | 7 | 12.9 | 62.8 | 0.00 | 2.34 | 0.71 | 57 | 1009.0 |
| 20260509041418 | 31 | 12 | 16.1 | 62.8 | 0.00 | 2.34 | 0.71 | 59 | 1009.0 |
| 20260509041218 | 31 | 12 | 16.1 | 62.8 | 0.00 | 2.34 | 0.71 | 59 | 1009.0 |
| 20260509041019 | 31 | 12 | 16.1 | 62.8 | 0.00 | 2.34 | 0.71 | 59 | 1009.0 |
| 20260509040818 | 31 | 12 | 16.1 | 62.8 | 0.00 | 2.34 | 0.71 | 59 | 1009.0 |
| 20260509040618 | 31 | 12 | 16.1 | 62.8 | 0.00 | 2.34 | 0.71 | 59 | 1009.0 |
| 20260509040418 | 31 | 12 | 16.1 | 62.8 | 0.00 | 2.34 | 0.71 | 59 | 1009.0 |
| 20260509040218 | 31 | 12 | 16.1 | 62.8 | 0.00 | 2.34 | 0.71 | 59 | 1009.0 |
| 20260509035818 | 31 | 10 | 19.3 | 64.4 | 0.00 | 2.34 | 0.71 | 61 | 1009.0 |
| 20260509035618 | 31 | 10 | 19.3 | 64.4 | 0.00 | 2.34 | 0.71 | 61 | 1009.0 |
| 20260509035418 | 31 | 10 | 19.3 | 64.4 | 0.00 | 2.34 | 0.71 | 61 | 1009.0 |
| 20260509035218 | 31 | 10 | 19.3 | 64.4 | 0.00 | 2.34 | 0.71 | 61 | 1009.0 |
| 20260509035019 | 31 | 10 | 19.3 | 64.4 | 0.00 | 2.34 | 0.71 | 61 | 1009.0 |
| 20260509034818 | 31 | 10 | 19.3 | 64.4 | 0.00 | 2.34 | 0.71 | 61 | 1009.0 |
| 20260509034618 | 31 | 10 | 19.3 | 64.4 | 0.00 | 2.34 | 0.71 | 61 | 1009.0 |
| 20260509034418 | 30 | 9 | 22.5 | 66.0 | 0.00 | 2.34 | 0.71 | 63 | 1009.0 |
| 20260509034218 | 30 | 9 | 22.5 | 66.0 | 0.00 | 2.34 | 0.71 | 63 | 1009.0 |
| 20260509034019 | 30 | 9 | 22.5 | 66.0 | 0.00 | 2.34 | 0.71 | 63 | 1009.0 |
| 20260509033618 | 30 | 9 | 22.5 | 66.0 | 0.00 | 2.34 | 0.71 | 63 | 1009.0 |
| 20260509033418 | 30 | 9 | 22.5 | 66.0 | 0.00 | 2.34 | 0.71 | 63 | 1009.0 |
| 20260509033218 | 30 | 9 | 22.5 | 66.0 | 0.00 | 2.34 | 0.71 | 63 | 1009.0 |
| 20260509033022 | 30 | 9 | 22.5 | 66.0 | 0.00 | 2.34 | 0.71 | 63 | 1009.0 |
| 20260509032818 | 30 | 6 | 24.1 | 66.0 | 0.00 | 2.34 | 0.71 | 65 | 1009.0 |
| 20260509032618 | 30 | 6 | 24.1 | 66.0 | 0.00 | 2.34 | 0.71 | 65 | 1009.0 |
| 20260509032418 | 30 | 6 | 24.1 | 66.0 | 0.00 | 2.34 | 0.71 | 65 | 1009.0 |
| 20260509032218 | 30 | 6 | 24.1 | 66.0 | 0.00 | 2.34 | 0.71 | 65 | 1009.0 |
| 20260509032019 | 30 | 6 | 24.1 | 66.0 | 0.00 | 2.34 | 0.71 | 65 | 1009.0 |
| 20260509031618 | 30 | 6 | 24.1 | 66.0 | 0.00 | 2.34 | 0.71 | 65 | 1009.0 |
| 20260509031418 | 29 | 4 | 27.4 | 66.0 | 0.00 | 2.34 | 0.71 | 68 | 1009.0 |
| 20260509031218 | 29 | 4 | 27.4 | 66.0 | 0.00 | 2.34 | 0.71 | 68 | 1009.0 |
| 20260509031019 | 29 | 4 | 27.4 | 66.0 | 0.00 | 2.34 | 0.71 | 68 | 1009.0 |
| 20260509030818 | 29 | 4 | 27.4 | 66.0 | 0.00 | 2.34 | 0.71 | 68 | 1009.0 |
| 20260509030618 | 29 | 4 | 27.4 | 66.0 | 0.00 | 2.34 | 0.71 | 68 | 1009.0 |
| 20260509030418 | 29 | 4 | 27.4 | 66.0 | 0.00 | 2.34 | 0.71 | 68 | 1009.0 |
| 20260509030218 | 29 | 4 | 27.4 | 66.0 | 0.00 | 2.34 | 0.71 | 68 | 1009.0 |
| 20260509030022 | 28 | 360 | 29.0 | 66.0 | 0.00 | 2.34 | 0.71 | 70 | 1009.0 |
| 20260509025818 | 28 | 360 | 29.0 | 66.0 | 0.00 | 2.34 | 0.71 | 70 | 1009.0 |
| 20260509025418 | 28 | 360 | 29.0 | 66.0 | 0.00 | 2.34 | 0.71 | 70 | 1009.0 |
| 20260509025218 | 28 | 360 | 29.0 | 66.0 | 0.00 | 2.34 | 0.71 | 70 | 1009.0 |
| 20260509025019 | 28 | 360 | 29.0 | 66.0 | 0.00 | 2.34 | 0.71 | 70 | 1009.0 |
| 20260509024818 | 28 | 360 | 29.0 | 66.0 | 0.00 | 2.34 | 0.71 | 70 | 1009.0 |
| 20260509024618 | 28 | 360 | 29.0 | 66.0 | 0.00 | 2.34 | 0.71 | 70 | 1009.0 |
| 20260509024418 | 28 | 355 | 30.6 | 66.0 | 0.00 | 2.34 | 0.71 | 72 | 1009.0 |
| 20260509024218 | 28 | 355 | 30.6 | 66.0 | 0.00 | 2.34 | 0.71 | 72 | 1009.0 |
| 20260509024019 | 28 | 355 | 30.6 | 66.0 | 0.00 | 2.34 | 0.71 | 72 | 1009.0 |
| 20260509023819 | 28 | 355 | 30.6 | 66.0 | 0.00 | 2.34 | 0.71 | 72 | 1009.0 |
| 20260509023618 | 28 | 355 | 30.6 | 66.0 | 0.00 | 2.34 | 0.71 | 72 | 1009.0 |
| 20260509020818 | 27 | 346 | 30.6 | 61.2 | 0.00 | 2.34 | 0.71 | 76 | 1009.0 |
| 20260509020618 | 27 | 346 | 30.6 | 61.2 | 0.00 | 2.34 | 0.71 | 76 | 1009.0 |
| 20260509020418 | 27 | 346 | 30.6 | 61.2 | 0.00 | 2.34 | 0.71 | 76 | 1009.0 |
| 20260509020218 | 27 | 346 | 30.6 | 61.2 | 0.00 | 2.34 | 0.71 | 76 | 1009.0 |
| 20260509020022 | 27 | 344 | 29.0 | 54.7 | 0.00 | 2.34 | 0.71 | 78 | 1009.0 |
| 20260509015818 | 27 | 344 | 29.0 | 54.7 | 0.00 | 2.34 | 0.71 | 78 | 1009.0 |
| 20260509015618 | 27 | 344 | 29.0 | 54.7 | 0.00 | 2.34 | 0.71 | 78 | 1009.0 |
| 20260509015418 | 27 | 344 | 29.0 | 54.7 | 0.00 | 2.34 | 0.71 | 78 | 1009.0 |
| 20260509015218 | 27 | 344 | 29.0 | 54.7 | 0.00 | 2.34 | 0.71 | 78 | 1009.0 |
| 20260509015019 | 27 | 344 | 29.0 | 54.7 | 0.00 | 2.34 | 0.71 | 78 | 1009.0 |
| 20260509014715 | 27 | 344 | 29.0 | 54.7 | 0.00 | 2.34 | 0.71 | 78 | 1009.0 |
| 20260509014317 | 27 | 342 | 25.7 | 48.3 | 0.00 | 2.34 | 0.71 | 80 | 1009.0 |
| 20260509014117 | 27 | 342 | 25.7 | 48.3 | 0.00 | 2.34 | 0.71 | 80 | 1009.0 |
| 20260509013917 | 27 | 342 | 25.7 | 48.3 | 0.00 | 2.34 | 0.71 | 80 | 1009.0 |
| 20260509013717 | 27 | 342 | 25.7 | 48.3 | 0.00 | 2.34 | 0.71 | 80 | 1009.0 |
| 20260509013517 | 27 | 342 | 25.7 | 48.3 | 0.00 | 2.34 | 0.71 | 80 | 1009.0 |
| 20260509013317 | 27 | 342 | 25.7 | 48.3 | 0.00 | 2.34 | 0.71 | 80 | 1009.0 |
| 20260509013117 | 27 | 342 | 25.7 | 48.3 | 0.00 | 2.34 | 0.71 | 80 | 1009.0 |
| 20260509012917 | 26 | 339 | 22.5 | 40.2 | 0.00 | 2.34 | 0.71 | 82 | 1008.0 |
| 20260509012717 | 26 | 339 | 22.5 | 40.2 | 0.00 | 2.34 | 0.71 | 82 | 1008.0 |
| 20260509012517 | 26 | 339 | 22.5 | 40.2 | 0.00 | 2.34 | 0.71 | 82 | 1008.0 |
| 20260509012117 | 26 | 339 | 22.5 | 40.2 | 0.00 | 2.34 | 0.71 | 82 | 1008.0 |
| 20260509011917 | 26 | 339 | 22.5 | 40.2 | 0.00 | 2.34 | 0.71 | 82 | 1008.0 |
| 20260509011717 | 26 | 339 | 22.5 | 40.2 | 0.00 | 2.34 | 0.71 | 82 | 1008.0 |
| 20260509011517 | 26 | 339 | 22.5 | 40.2 | 0.00 | 2.34 | 0.71 | 82 | 1008.0 |
| 20260509011317 | 26 | 336 | 19.3 | 35.4 | 0.00 | 2.34 | 0.71 | 84 | 1008.0 |
| 20260509011117 | 26 | 336 | 19.3 | 35.4 | 0.00 | 2.34 | 0.71 | 84 | 1008.0 |
| 20260509010917 | 26 | 336 | 19.3 | 35.4 | 0.00 | 2.34 | 0.71 | 84 | 1008.0 |
| 20260509010717 | 26 | 336 | 19.3 | 35.4 | 0.00 | 2.34 | 0.71 | 84 | 1008.0 |
| 20260509010517 | 26 | 336 | 19.3 | 35.4 | 0.00 | 2.34 | 0.71 | 84 | 1008.0 |
| 20260509010317 | 26 | 336 | 19.3 | 35.4 | 0.00 | 2.34 | 0.71 | 84 | 1008.0 |
| 20260509005917 | 26 | 331 | 16.1 | 32.2 | 0.00 | 2.34 | 0.71 | 84 | 1008.0 |
| 20260509005717 | 26 | 331 | 16.1 | 32.2 | 0.00 | 2.34 | 0.71 | 84 | 1008.0 |
| 20260509005517 | 26 | 331 | 16.1 | 32.2 | 0.00 | 2.34 | 0.71 | 84 | 1008.0 |
| 20260509005317 | 26 | 331 | 16.1 | 32.2 | 0.00 | 2.34 | 0.71 | 84 | 1008.0 |
| 20260509005117 | 26 | 331 | 16.1 | 32.2 | 0.00 | 2.34 | 0.71 | 84 | 1008.0 |
| 20260509004917 | 26 | 331 | 16.1 | 32.2 | 0.00 | 2.34 | 0.71 | 84 | 1008.0 |
| 20260509004717 | 26 | 331 | 16.1 | 32.2 | 0.00 | 2.34 | 0.71 | 84 | 1008.0 |
| 20260509004517 | 26 | 331 | 16.1 | 32.2 | 0.00 | 2.34 | 0.71 | 84 | 1008.0 |
| 20260509004317 | 26 | 326 | 12.9 | 30.6 | 0.00 | 2.34 | 0.71 | 85 | 1008.0 |
| 20260509004119 | 26 | 326 | 12.9 | 30.6 | 0.00 | 2.34 | 0.71 | 85 | 1008.0 |
| 20260509003717 | 26 | 326 | 12.9 | 30.6 | 0.00 | 2.34 | 0.71 | 85 | 1008.0 |
| 20260509003517 | 26 | 326 | 12.9 | 30.6 | 0.00 | 2.34 | 0.71 | 85 | 1008.0 |
| 20260509003317 | 26 | 326 | 12.9 | 30.6 | 0.00 | 2.34 | 0.71 | 85 | 1008.0 |
| 20260509003117 | 26 | 326 | 12.9 | 30.6 | 0.00 | 2.34 | 0.71 | 85 | 1008.0 |
| 20260509002917 | 26 | 319 | 11.3 | 30.6 | 0.00 | 2.34 | 0.71 | 85 | 1008.0 |
| 20260509002717 | 26 | 319 | 11.3 | 30.6 | 0.00 | 2.34 | 0.71 | 85 | 1008.0 |
| 20260509002517 | 26 | 319 | 11.3 | 30.6 | 0.00 | 2.34 | 0.71 | 85 | 1008.0 |
| 20260509002317 | 26 | 319 | 11.3 | 30.6 | 0.00 | 2.34 | 0.71 | 85 | 1008.0 |
| 20260509002117 | 26 | 319 | 11.3 | 30.6 | 0.00 | 2.34 | 0.71 | 85 | 1008.0 |
| 20260509001717 | 26 | 319 | 11.3 | 30.6 | 0.00 | 2.34 | 0.71 | 85 | 1008.0 |
| 20260509001517 | 26 | 319 | 11.3 | 30.6 | 0.00 | 2.34 | 0.71 | 85 | 1008.0 |
| 20260509001317 | 26 | 309 | 9.7 | 29.0 | 0.00 | 2.34 | 0.71 | 85 | 1008.0 |
| 20260509001117 | 26 | 309 | 9.7 | 29.0 | 0.00 | 2.34 | 0.71 | 85 | 1008.0 |
| 20260509000917 | 26 | 323 | 12.9 | 29.0 | 0.00 | 2.34 | 0.71 | 85 | 1008.0 |
| 20260509000717 | 26 | 323 | 12.9 | 29.0 | 0.00 | 2.34 | 0.71 | 85 | 1008.0 |
| 20260509000517 | 26 | 336 | 11.3 | 29.0 | 0.00 | 2.34 | 0.71 | 85 | 1008.0 |
| 20260509000318 | 26 | 336 | 11.3 | 19.3 | 0.00 | 2.34 | 0.71 | 85 | 1008.0 |
| 20260509000118 | 26 | 336 | 11.3 | 19.3 | 0.00 | 2.34 | 0.71 | 85 | 1008.0 |
| 20260508235717 | 26 | 333 | 9.7 | 17.7 | 0.00 | 2.34 | 0.71 | 84 | 1007.0 |
| 20260508235517 | 26 | 333 | 9.7 | 17.7 | 0.00 | 2.34 | 0.71 | 84 | 1007.0 |
| 20260508235317 | 26 | 333 | 9.7 | 17.7 | 0.00 | 2.34 | 0.71 | 84 | 1007.0 |
| 20260508235117 | 26 | 333 | 9.7 | 17.7 | 0.00 | 2.34 | 0.71 | 84 | 1007.0 |
| 20260508234918 | 26 | 333 | 9.7 | 17.7 | 0.00 | 2.34 | 0.71 | 84 | 1007.0 |
| 20260508234717 | 26 | 333 | 9.7 | 17.7 | 0.00 | 2.34 | 0.71 | 84 | 1007.0 |
| 20260508234519 | 26 | 333 | 9.7 | 17.7 | 0.00 | 2.34 | 0.36 | 83 | 1007.0 |
| 20260508234317 | 26 | 333 | 9.7 | 17.7 | 0.00 | 2.34 | 0.36 | 83 | 1007.0 |
| 20260508234117 | 26 | 333 | 9.7 | 17.7 | 0.00 | 2.34 | 0.36 | 83 | 1007.0 |
| 20260508233717 | 26 | 333 | 9.7 | 17.7 | 0.00 | 2.34 | 0.36 | 83 | 1007.0 |
| 20260508233517 | 26 | 333 | 9.7 | 17.7 | 0.00 | 2.34 | 0.36 | 83 | 1007.0 |
| 20260508233317 | 26 | 333 | 9.7 | 17.7 | 0.00 | 2.34 | 0.36 | 83 | 1007.0 |
| 20260508233117 | 26 | 333 | 9.7 | 17.7 | 0.00 | 2.34 | 0.36 | 83 | 1007.0 |
| 20260508232917 | 26 | 333 | 9.7 | 19.3 | 0.00 | 2.34 | 0.36 | 83 | 1007.0 |
| 20260508232717 | 26 | 333 | 9.7 | 19.3 | 0.00 | 2.34 | 0.36 | 83 | 1007.0 |
| 20260508232520 | 26 | 333 | 9.7 | 19.3 | 0.00 | 2.34 | 0.36 | 83 | 1007.0 |
| 20260508232317 | 26 | 333 | 9.7 | 19.3 | 0.00 | 2.34 | 0.36 | 83 | 1007.0 |
| 20260508232117 | 26 | 333 | 9.7 | 19.3 | 0.00 | 2.34 | 0.36 | 83 | 1007.0 |
| 20260508231917 | 26 | 333 | 9.7 | 19.3 | 0.00 | 2.34 | 0.36 | 83 | 1007.0 |
| 20260508231517 | 26 | 333 | 9.7 | 19.3 | 0.00 | 2.34 | 0.36 | 83 | 1007.0 |
| 20260508231317 | 26 | 331 | 11.3 | 20.9 | 0.00 | 2.34 | 0.36 | 83 | 1006.0 |
| 20260508231117 | 26 | 331 | 11.3 | 20.9 | 0.00 | 2.34 | 0.36 | 83 | 1006.0 |
| 20260508230917 | 26 | 331 | 11.3 | 20.9 | 0.00 | 2.34 | 0.36 | 83 | 1006.0 |
| 20260508230717 | 26 | 331 | 11.3 | 20.9 | 0.00 | 2.34 | 0.36 | 83 | 1006.0 |
| 20260508230517 | 26 | 331 | 11.3 | 20.9 | 0.00 | 2.34 | 0.36 | 83 | 1006.0 |
| 20260508230317 | 26 | 331 | 11.3 | 20.9 | 0.00 | 2.34 | 0.36 | 83 | 1006.0 |
| 20260508230117 | 26 | 331 | 11.3 | 20.9 | 0.00 | 2.34 | 0.36 | 83 | 1006.0 |
| 20260508225917 | 26 | 327 | 9.7 | 20.9 | 0.00 | 2.34 | 0.36 | 83 | 1006.0 |
| 20260508225517 | 26 | 327 | 9.7 | 20.9 | 0.00 | 2.34 | 0.36 | 83 | 1006.0 |
| 20260508225317 | 26 | 327 | 9.7 | 20.9 | 0.00 | 2.34 | 0.36 | 83 | 1006.0 |
| 20260508225117 | 26 | 327 | 9.7 | 20.9 | 0.00 | 2.34 | 0.36 | 83 | 1006.0 |
| 20260508224917 | 26 | 327 | 9.7 | 20.9 | 0.00 | 2.34 | 0.36 | 83 | 1006.0 |
| 20260508224717 | 26 | 327 | 9.7 | 20.9 | 0.00 | 2.34 | 0.36 | 83 | 1006.0 |
| 20260508224517 | 26 | 327 | 9.7 | 20.9 | 0.00 | 2.34 | 0.36 | 83 | 1006.0 |
| 20260508224317 | 26 | 319 | 9.7 | 20.9 | 0.00 | 2.34 | 0.36 | 83 | 1006.0 |
| 20260508224117 | 26 | 319 | 9.7 | 20.9 | 0.00 | 2.34 | 0.36 | 83 | 1006.0 |
| 20260508223917 | 26 | 319 | 9.7 | 20.9 | 0.00 | 2.34 | 0.36 | 83 | 1006.0 |
| 20260508223717 | 26 | 319 | 9.7 | 20.9 | 0.00 | 2.34 | 0.36 | 83 | 1006.0 |
| 20260508223317 | 26 | 319 | 9.7 | 20.9 | 0.00 | 2.34 | 0.36 | 83 | 1006.0 |
| 20260508223117 | 26 | 319 | 9.7 | 20.9 | 0.00 | 2.34 | 0.36 | 83 | 1006.0 |
| 20260508222917 | 26 | 311 | 9.7 | 20.9 | 0.00 | 2.34 | 0.36 | 82 | 1006.0 |
| 20260508222717 | 26 | 311 | 9.7 | 20.9 | 0.00 | 2.34 | 0.36 | 82 | 1006.0 |
| 20260508222517 | 26 | 311 | 9.7 | 20.9 | 0.00 | 2.34 | 0.36 | 82 | 1006.0 |
| 20260508222317 | 26 | 311 | 9.7 | 20.9 | 0.00 | 2.34 | 0.36 | 82 | 1006.0 |
| 20260508222117 | 26 | 311 | 9.7 | 20.9 | 0.00 | 2.34 | 0.36 | 82 | 1006.0 |
| 20260508221917 | 26 | 311 | 9.7 | 20.9 | 0.00 | 2.34 | 0.36 | 82 | 1006.0 |
| 20260508221717 | 26 | 311 | 9.7 | 20.9 | 0.00 | 2.34 | 0.36 | 82 | 1006.0 |
| 20260508221518 | 26 | 311 | 9.7 | 20.9 | 0.00 | 2.34 | 0.36 | 82 | 1006.0 |
| 20260508221117 | 26 | 303 | 9.7 | 20.9 | 0.00 | 2.34 | 0.36 | 82 | 1006.0 |
| 20260508220917 | 26 | 303 | 9.7 | 20.9 | 0.00 | 2.34 | 0.36 | 82 | 1006.0 |
| 20260508220717 | 26 | 303 | 9.7 | 20.9 | 0.00 | 2.34 | 0.36 | 82 | 1006.0 |
| 20260508220517 | 26 | 303 | 9.7 | 20.9 | 0.00 | 2.34 | 0.36 | 82 | 1006.0 |
| 20260508220317 | 26 | 303 | 9.7 | 20.9 | 0.00 | 2.34 | 0.36 | 82 | 1006.0 |
| 20260508220117 | 26 | 303 | 9.7 | 20.9 | 0.00 | 2.34 | 0.36 | 82 | 1006.0 |
| 20260508215917 | 26 | 293 | 11.3 | 24.1 | 0.00 | 2.34 | 0.36 | 82 | 1006.0 |
| 20260508215717 | 26 | 293 | 11.3 | 24.1 | 0.00 | 2.34 | 0.36 | 82 | 1006.0 |
| 20260508215517 | 26 | 293 | 11.3 | 24.1 | 0.00 | 2.34 | 0.36 | 82 | 1006.0 |
| 20260508215318 | 26 | 293 | 11.3 | 24.1 | 0.00 | 2.34 | 0.36 | 82 | 1006.0 |
| 20260508214917 | 26 | 293 | 11.3 | 24.1 | 0.00 | 2.34 | 0.36 | 82 | 1006.0 |
| 20260508214717 | 26 | 293 | 11.3 | 24.1 | 0.00 | 2.34 | 0.36 | 82 | 1006.0 |
| 20260508214517 | 26 | 293 | 11.3 | 24.1 | 0.00 | 2.34 | 0.36 | 82 | 1006.0 |
| 20260508214317 | 27 | 279 | 9.7 | 25.7 | 0.00 | 2.34 | 0.36 | 82 | 1007.0 |
| 20260508214117 | 27 | 279 | 9.7 | 25.7 | 0.00 | 2.34 | 0.36 | 82 | 1007.0 |
| 20260508213917 | 27 | 279 | 9.7 | 25.7 | 0.00 | 2.34 | 0.36 | 82 | 1007.0 |
| 20260508213717 | 27 | 279 | 9.7 | 25.7 | 0.00 | 2.34 | 0.36 | 82 | 1007.0 |
| 20260508213519 | 27 | 279 | 9.7 | 25.7 | 0.00 | 2.34 | 0.36 | 82 | 1007.0 |
| 20260508213317 | 27 | 279 | 9.7 | 25.7 | 0.00 | 2.34 | 0.36 | 82 | 1007.0 |
| 20260508212717 | 27 | 267 | 11.3 | 29.0 | 0.00 | 2.34 | 0.36 | 81 | 1007.0 |
| 20260508212517 | 27 | 267 | 11.3 | 29.0 | 0.00 | 2.34 | 0.36 | 81 | 1007.0 |
| 20260508212318 | 27 | 267 | 11.3 | 29.0 | 0.00 | 2.34 | 0.36 | 81 | 1007.0 |
| 20260508212122 | 27 | 267 | 11.3 | 29.0 | 0.00 | 2.34 | 0.36 | 81 | 1007.0 |
| 20260508211917 | 27 | 267 | 11.3 | 29.0 | 0.00 | 2.34 | 0.36 | 81 | 1007.0 |
| 20260508211317 | 27 | 260 | 12.9 | 29.0 | 0.00 | 2.34 | 0.36 | 81 | 1007.0 |
| 20260508211117 | 27 | 260 | 12.9 | 29.0 | 0.00 | 2.34 | 0.36 | 81 | 1007.0 |
| 20260508210917 | 27 | 260 | 12.9 | 29.0 | 0.00 | 2.34 | 0.36 | 81 | 1007.0 |
| 20260508210717 | 27 | 260 | 12.9 | 29.0 | 0.00 | 2.34 | 0.36 | 81 | 1007.0 |
| 20260508210517 | 27 | 260 | 12.9 | 29.0 | 0.00 | 2.34 | 0.36 | 81 | 1007.0 |
| 20260508210317 | 27 | 260 | 12.9 | 29.0 | 0.00 | 2.34 | 0.36 | 81 | 1007.0 |
| 20260508210117 | 27 | 260 | 12.9 | 29.0 | 0.00 | 2.34 | 0.36 | 81 | 1007.0 |
| 20260508205917 | 27 | 257 | 12.9 | 29.0 | 0.00 | 2.34 | 0.36 | 81 | 1007.0 |
| 20260508205717 | 27 | 257 | 12.9 | 29.0 | 0.00 | 2.34 | 0.36 | 81 | 1007.0 |
| 20260508205317 | 27 | 257 | 12.9 | 29.0 | 0.00 | 2.34 | 0.36 | 81 | 1007.0 |
| 20260508205117 | 27 | 257 | 12.9 | 29.0 | 0.00 | 2.34 | 0.36 | 81 | 1007.0 |
| 20260508204917 | 27 | 257 | 12.9 | 29.0 | 0.00 | 2.34 | 0.36 | 81 | 1007.0 |
| 20260508204717 | 27 | 257 | 12.9 | 29.0 | 0.00 | 2.34 | 0.36 | 81 | 1007.0 |
| 20260508204517 | 27 | 257 | 12.9 | 29.0 | 0.00 | 2.34 | 0.36 | 81 | 1007.0 |
| 20260508204317 | 27 | 256 | 16.1 | 29.0 | 0.00 | 2.34 | 0.36 | 81 | 1007.0 |
| 20260508204117 | 27 | 256 | 16.1 | 29.0 | 0.00 | 2.34 | 0.36 | 81 | 1007.0 |
| 20260508203917 | 27 | 256 | 16.1 | 29.0 | 0.00 | 2.34 | 0.36 | 81 | 1007.0 |
| 20260508203717 | 27 | 256 | 16.1 | 29.0 | 0.00 | 2.34 | 0.36 | 81 | 1007.0 |
| 20260508203518 | 27 | 256 | 16.1 | 29.0 | 0.00 | 2.34 | 0.36 | 81 | 1007.0 |
| 20260508203118 | 27 | 256 | 16.1 | 29.0 | 0.00 | 2.34 | 0.36 | 81 | 1007.0 |
| 20260508202918 | 27 | 255 | 16.1 | 29.0 | 0.00 | 2.34 | 0.36 | 80 | 1007.0 |
| 20260508202717 | 27 | 255 | 16.1 | 29.0 | 0.00 | 2.34 | 0.36 | 80 | 1007.0 |
| 20260508202517 | 27 | 255 | 16.1 | 29.0 | 0.00 | 2.34 | 0.36 | 80 | 1007.0 |
| 20260508202317 | 27 | 255 | 16.1 | 29.0 | 0.00 | 2.34 | 0.36 | 80 | 1007.0 |
| 20260508202117 | 27 | 255 | 16.1 | 29.0 | 0.00 | 2.34 | 0.36 | 80 | 1007.0 |
| 20260508201918 | 27 | 255 | 16.1 | 29.0 | 0.00 | 2.34 | 0.36 | 80 | 1007.0 |
| 20260508201718 | 27 | 255 | 16.1 | 29.0 | 0.00 | 2.34 | 0.36 | 80 | 1007.0 |
| 20260508201518 | 27 | 255 | 16.1 | 29.0 | 0.00 | 2.34 | 0.36 | 80 | 1007.0 |
| 20260508201118 | 27 | 257 | 17.7 | 29.0 | 0.00 | 2.34 | 0.36 | 80 | 1008.0 |
| 20260508200917 | 27 | 257 | 17.7 | 29.0 | 0.00 | 2.34 | 0.36 | 80 | 1008.0 |
| 20260508200718 | 27 | 257 | 17.7 | 29.0 | 0.00 | 2.34 | 0.36 | 80 | 1008.0 |
| 20260508200517 | 27 | 257 | 17.7 | 29.0 | 0.00 | 2.34 | 0.36 | 80 | 1008.0 |
| 20260508200318 | 27 | 257 | 17.7 | 29.0 | 0.00 | 2.34 | 0.36 | 80 | 1008.0 |
| 20260508200118 | 27 | 257 | 17.7 | 29.0 | 0.00 | 2.34 | 0.36 | 80 | 1008.0 |
| 20260508195918 | 27 | 261 | 16.1 | 29.0 | 0.00 | 2.34 | 0.36 | 80 | 1008.0 |
| 20260508195717 | 27 | 261 | 16.1 | 29.0 | 0.00 | 2.34 | 0.36 | 80 | 1008.0 |
| 20260508195518 | 27 | 261 | 16.1 | 29.0 | 0.00 | 2.34 | 0.36 | 80 | 1008.0 |
| 20260508195318 | 27 | 261 | 16.1 | 29.0 | 0.00 | 2.34 | 0.36 | 80 | 1008.0 |
| 20260508194917 | 27 | 261 | 16.1 | 29.0 | 0.00 | 2.34 | 0.36 | 80 | 1008.0 |
| 20260508194717 | 27 | 261 | 16.1 | 29.0 | 0.00 | 2.34 | 0.36 | 80 | 1008.0 |
| 20260508194517 | 27 | 261 | 16.1 | 29.0 | 0.00 | 2.34 | 0.36 | 80 | 1008.0 |
| 20260508194317 | 27 | 266 | 14.5 | 32.2 | 0.00 | 2.34 | 0.36 | 80 | 1008.0 |
| 20260508194117 | 27 | 266 | 14.5 | 32.2 | 0.00 | 2.34 | 0.36 | 80 | 1008.0 |
| 20260508193917 | 27 | 266 | 14.5 | 32.2 | 0.00 | 2.34 | 0.36 | 80 | 1008.0 |
| 20260508193717 | 27 | 266 | 14.5 | 32.2 | 0.00 | 2.34 | 0.36 | 80 | 1008.0 |
| 20260508193517 | 27 | 266 | 14.5 | 32.2 | 0.00 | 2.34 | 0.36 | 80 | 1008.0 |
| 20260508193318 | 27 | 266 | 14.5 | 32.2 | 0.00 | 2.34 | 0.36 | 80 | 1008.0 |
| 20260508192917 | 27 | 272 | 14.5 | 32.2 | 0.00 | 2.34 | 0.36 | 80 | 1008.0 |
| 20260508192717 | 27 | 272 | 14.5 | 32.2 | 0.00 | 2.34 | 0.36 | 80 | 1008.0 |
| 20260508192517 | 27 | 272 | 14.5 | 32.2 | 0.00 | 2.34 | 0.36 | 80 | 1008.0 |
| 20260508192317 | 27 | 272 | 14.5 | 32.2 | 0.00 | 2.34 | 0.36 | 80 | 1008.0 |
| 20260508192120 | 27 | 272 | 14.5 | 32.2 | 0.00 | 2.34 | 0.36 | 80 | 1008.0 |
| 20260508191917 | 27 | 272 | 14.5 | 32.2 | 0.00 | 2.34 | 0.36 | 80 | 1008.0 |
| 20260508191717 | 27 | 272 | 14.5 | 32.2 | 0.00 | 2.34 | 0.36 | 80 | 1008.0 |
| 20260508191517 | 27 | 272 | 14.5 | 32.2 | 0.00 | 2.34 | 0.36 | 80 | 1008.0 |
| 20260508191318 | 27 | 279 | 12.9 | 33.8 | 0.00 | 2.34 | 0.36 | 80 | 1008.0 |
| 20260508191118 | 27 | 279 | 12.9 | 33.8 | 0.00 | 2.34 | 0.36 | 80 | 1008.0 |
| 20260508190717 | 27 | 279 | 12.9 | 33.8 | 0.00 | 2.34 | 0.36 | 80 | 1008.0 |
| 20260508190517 | 27 | 279 | 12.9 | 33.8 | 0.00 | 2.34 | 0.36 | 80 | 1008.0 |
| 20260508190317 | 27 | 279 | 12.9 | 33.8 | 0.00 | 2.34 | 0.36 | 80 | 1008.0 |
| 20260508190118 | 27 | 234 | 16.1 | 33.8 | 0.00 | 2.34 | 0.36 | 80 | 1008.0 |
| 20260508185918 | 27 | 240 | 16.1 | 33.8 | 0.00 | 6.96 | 0.89 | 80 | 1009.0 |
| 20260508185717 | 27 | 240 | 16.1 | 33.8 | 0.00 | 6.96 | 0.89 | 80 | 1009.0 |
| 20260508185517 | 27 | 240 | 16.1 | 33.8 | 0.00 | 6.96 | 0.89 | 80 | 1009.0 |
| 20260508185317 | 27 | 240 | 16.1 | 33.8 | 0.00 | 6.96 | 0.89 | 80 | 1009.0 |
| 20260508185117 | 27 | 227 | 11.3 | 33.8 | 0.00 | 6.96 | 0.89 | 80 | 1009.0 |
| 20260508184717 | 27 | 227 | 11.3 | 33.8 | 0.00 | 6.96 | 0.89 | 80 | 1009.0 |
| 20260508184518 | 27 | 227 | 11.3 | 33.8 | 0.00 | 6.96 | 0.89 | 80 | 1009.0 |
| 20260508184318 | 27 | 227 | 9.7 | 14.5 | 0.00 | 6.96 | 0.89 | 81 | 1009.0 |
| 20260508184117 | 27 | 227 | 9.7 | 14.5 | 0.00 | 6.96 | 0.89 | 81 | 1009.0 |
| 20260508183917 | 27 | 227 | 9.7 | 14.5 | 0.00 | 6.96 | 0.89 | 81 | 1009.0 |
| 20260508183718 | 27 | 227 | 9.7 | 14.5 | 0.00 | 6.96 | 0.89 | 81 | 1009.0 |
| 20260508183517 | 27 | 227 | 9.7 | 14.5 | 0.00 | 6.96 | 0.89 | 81 | 1009.0 |
| 20260508183318 | 27 | 227 | 9.7 | 14.5 | 0.00 | 6.96 | 0.89 | 81 | 1009.0 |
| 20260508183117 | 27 | 227 | 9.7 | 14.5 | 0.00 | 6.96 | 0.89 | 81 | 1009.0 |
| 20260508182918 | 27 | 228 | 8.0 | 9.7 | 0.00 | 6.96 | 0.89 | 80 | 1009.0 |
| 20260508182517 | 27 | 228 | 8.0 | 9.7 | 0.00 | 6.96 | 0.89 | 80 | 1009.0 |
| 20260508182318 | 27 | 228 | 8.0 | 9.7 | 0.00 | 1.80 | 0.79 | 79 | 1009.0 |
| 20260508182117 | 27 | 228 | 8.0 | 9.7 | 0.00 | 1.80 | 0.79 | 79 | 1009.0 |
| 20260508181918 | 27 | 228 | 8.0 | 9.7 | 0.00 | 1.80 | 0.79 | 79 | 1009.0 |
| 20260508181717 | 27 | 228 | 8.0 | 9.7 | 0.00 | 1.80 | 0.79 | 79 | 1009.0 |
| 20260508181518 | 27 | 228 | 8.0 | 9.7 | 0.00 | 1.80 | 0.79 | 79 | 1009.0 |
| 20260508181318 | 28 | 228 | 6.4 | 8.0 | 0.00 | 1.80 | 0.79 | 79 | 1009.0 |
| 20260508181118 | 28 | 228 | 6.4 | 8.0 | 0.00 | 1.80 | 0.79 | 79 | 1009.0 |
| 20260508180918 | 28 | 228 | 6.4 | 8.0 | 0.00 | 1.80 | 0.79 | 79 | 1009.0 |
| 20260508180518 | 28 | 228 | 6.4 | 8.0 | 0.00 | 1.80 | 0.79 | 79 | 1009.0 |
| 20260508180322 | 28 | 228 | 6.4 | 8.0 | 0.00 | 1.80 | 0.79 | 79 | 1009.0 |
| 20260508180118 | 28 | 228 | 6.4 | 8.0 | 0.00 | 1.80 | 0.79 | 79 | 1009.0 |
| 20260508175918 | 28 | 229 | 4.8 | 9.7 | 0.00 | 1.80 | 0.79 | 78 | 1009.0 |
| 20260508175718 | 28 | 229 | 4.8 | 9.7 | 0.00 | 1.80 | 0.79 | 78 | 1009.0 |
| 20260508175518 | 28 | 229 | 4.8 | 9.7 | 0.00 | 1.80 | 0.79 | 78 | 1009.0 |
| 20260508175318 | 28 | 229 | 4.8 | 9.7 | 0.00 | 1.80 | 0.79 | 78 | 1009.0 |
| 20260508175118 | 28 | 229 | 4.8 | 9.7 | 0.00 | 1.80 | 0.79 | 78 | 1009.0 |
| 20260508174918 | 28 | 229 | 4.8 | 9.7 | 0.00 | 1.80 | 0.79 | 78 | 1009.0 |
| 20260508174318 | 28 | 219 | 3.2 | 11.3 | 0.00 | 1.80 | 0.79 | 78 | 1009.0 |
| 20260508174118 | 28 | 219 | 3.2 | 11.3 | 0.00 | 1.80 | 0.79 | 78 | 1009.0 |
| 20260508173918 | 28 | 219 | 3.2 | 11.3 | 0.00 | 1.80 | 0.79 | 78 | 1009.0 |
| 20260508173718 | 28 | 219 | 3.2 | 11.3 | 0.00 | 1.80 | 0.79 | 78 | 1009.0 |
| 20260508173518 | 28 | 219 | 3.2 | 11.3 | 0.00 | 1.80 | 0.79 | 78 | 1009.0 |
| 20260508173318 | 28 | 219 | 3.2 | 11.3 | 0.00 | 1.80 | 0.79 | 78 | 1009.0 |
| 20260508173118 | 28 | 219 | 3.2 | 11.3 | 0.00 | 1.80 | 0.79 | 78 | 1009.0 |
| 20260508172918 | 28 | 225 | 1.6 | 14.5 | 0.00 | 1.80 | 0.79 | 77 | 1009.0 |
| 20260508172718 | 28 | 225 | 1.6 | 14.5 | 0.00 | 1.80 | 0.79 | 77 | 1009.0 |
| 20260508171718 | 28 | 225 | 1.6 | 14.5 | 0.00 | 1.80 | 0.79 | 77 | 1009.0 |
| 20260508171318 | 28 | 243 | 0.0 | 16.1 | 0.00 | 1.80 | 0.79 | 76 | 1009.0 |
| 20260508170518 | 28 | 243 | 0.0 | 16.1 | 0.00 | 1.80 | 0.79 | 76 | 1009.0 |
| 20260508170118 | 28 | 243 | 0.0 | 16.1 | 0.00 | 1.80 | 0.79 | 76 | 1009.0 |
| 20260508165918 | 28 | 297 | 1.6 | 16.1 | 0.00 | 1.80 | 0.79 | 75 | 1009.0 |
| 20260508165718 | 28 | 297 | 1.6 | 16.1 | 0.00 | 1.80 | 0.79 | 75 | 1009.0 |
| 20260508165518 | 28 | 297 | 1.6 | 16.1 | 0.00 | 1.80 | 0.79 | 75 | 1009.0 |
| 20260508165318 | 28 | 297 | 1.6 | 16.1 | 0.00 | 1.80 | 0.79 | 75 | 1009.0 |
| 20260508165118 | 28 | 297 | 1.6 | 16.1 | 0.00 | 1.80 | 0.79 | 75 | 1009.0 |
| 20260508164918 | 28 | 297 | 1.6 | 16.1 | 0.00 | 1.80 | 0.79 | 75 | 1009.0 |
| 20260508164718 | 28 | 297 | 1.6 | 16.1 | 0.00 | 1.80 | 0.79 | 75 | 1009.0 |
| 20260508164518 | 28 | 297 | 1.6 | 16.1 | 0.00 | 1.80 | 0.79 | 75 | 1009.0 |
| 20260508164318 | 28 | 306 | 3.2 | 16.1 | 0.00 | 1.80 | 0.79 | 74 | 1009.0 |
| 20260508163918 | 28 | 306 | 3.2 | 16.1 | 0.00 | 1.80 | 0.79 | 74 | 1009.0 |
| 20260508163718 | 28 | 306 | 3.2 | 16.1 | 0.00 | 1.80 | 0.79 | 74 | 1009.0 |
| 20260508163518 | 28 | 306 | 3.2 | 16.1 | 0.00 | 1.80 | 0.79 | 74 | 1009.0 |
| 20260508163318 | 28 | 306 | 3.2 | 16.1 | 0.00 | 1.80 | 0.79 | 74 | 1009.0 |
| 20260508163118 | 28 | 306 | 3.2 | 16.1 | 0.00 | 1.80 | 0.79 | 74 | 1009.0 |
| 20260508162918 | 29 | 309 | 6.4 | 16.1 | 0.00 | 1.80 | 0.79 | 73 | 1008.0 |
| 20260508162718 | 29 | 309 | 6.4 | 16.1 | 0.00 | 1.80 | 0.79 | 73 | 1008.0 |
| 20260508162518 | 29 | 309 | 6.4 | 16.1 | 0.00 | 1.80 | 0.79 | 73 | 1008.0 |
| 20260508162318 | 29 | 309 | 6.4 | 16.1 | 0.00 | 1.80 | 0.79 | 73 | 1008.0 |
| 20260508162118 | 29 | 309 | 6.4 | 16.1 | 0.00 | 1.80 | 0.79 | 73 | 1008.0 |
| 20260508161718 | 29 | 309 | 6.4 | 16.1 | 0.00 | 1.80 | 0.79 | 73 | 1008.0 |
| 20260508161518 | 29 | 309 | 6.4 | 16.1 | 0.00 | 1.80 | 0.79 | 73 | 1008.0 |
| 20260508161318 | 29 | 310 | 8.0 | 16.1 | 0.00 | 1.80 | 0.79 | 72 | 1008.0 |
| 20260508161118 | 29 | 310 | 8.0 | 16.1 | 0.00 | 1.80 | 0.79 | 72 | 1008.0 |
| 20260508160918 | 29 | 310 | 8.0 | 16.1 | 0.00 | 1.80 | 0.79 | 72 | 1008.0 |
| 20260508160718 | 29 | 310 | 8.0 | 16.1 | 0.00 | 1.80 | 0.79 | 72 | 1008.0 |
| 20260508160518 | 29 | 310 | 8.0 | 16.1 | 0.00 | 1.80 | 0.79 | 72 | 1008.0 |
| 20260508160318 | 29 | 310 | 8.0 | 16.1 | 0.00 | 1.80 | 0.79 | 72 | 1008.0 |
| 20260508160118 | 29 | 310 | 8.0 | 16.1 | 0.00 | 1.80 | 0.79 | 72 | 1008.0 |
| 20260508155718 | 29 | 310 | 8.0 | 17.7 | 0.00 | 1.80 | 0.79 | 72 | 1008.0 |
| 20260508155518 | 29 | 310 | 8.0 | 17.7 | 0.00 | 1.80 | 0.79 | 72 | 1008.0 |
| 20260508155318 | 29 | 310 | 8.0 | 17.7 | 0.00 | 1.80 | 0.79 | 72 | 1008.0 |
| 20260508155118 | 29 | 310 | 8.0 | 17.7 | 0.00 | 1.80 | 0.79 | 72 | 1008.0 |
| 20260508154918 | 29 | 310 | 8.0 | 17.7 | 0.00 | 1.80 | 0.79 | 72 | 1008.0 |
| 20260508154718 | 29 | 310 | 8.0 | 17.7 | 0.00 | 1.80 | 0.79 | 72 | 1008.0 |
| 20260508154518 | 29 | 310 | 8.0 | 17.7 | 0.00 | 1.80 | 0.79 | 72 | 1008.0 |
| 20260508154318 | 30 | 306 | 6.4 | 17.7 | 0.00 | 1.80 | 0.79 | 72 | 1008.0 |
| 20260508154118 | 30 | 306 | 6.4 | 17.7 | 0.00 | 1.80 | 0.79 | 72 | 1008.0 |
| 20260508153718 | 30 | 306 | 6.4 | 17.7 | 0.00 | 1.80 | 0.79 | 72 | 1008.0 |
| 20260508153518 | 30 | 306 | 6.4 | 17.7 | 0.00 | 1.80 | 0.79 | 72 | 1008.0 |
| 20260508153318 | 30 | 306 | 6.4 | 17.7 | 0.00 | 1.80 | 0.79 | 72 | 1008.0 |
| 20260508153118 | 30 | 306 | 6.4 | 17.7 | 0.00 | 1.80 | 0.79 | 72 | 1008.0 |
| 20260508152918 | 30 | 304 | 4.8 | 20.9 | 0.00 | 1.80 | 0.79 | 72 | 1008.0 |
| 20260508152718 | 30 | 304 | 4.8 | 20.9 | 0.00 | 1.80 | 0.79 | 72 | 1008.0 |
| 20260508152518 | 30 | 304 | 4.8 | 20.9 | 0.00 | 1.80 | 0.79 | 72 | 1008.0 |
| 20260508152318 | 30 | 304 | 4.8 | 20.9 | 0.00 | 1.80 | 0.79 | 72 | 1008.0 |
| 20260508152118 | 30 | 304 | 4.8 | 20.9 | 0.00 | 1.80 | 0.79 | 72 | 1008.0 |
| 20260508151919 | 30 | 304 | 4.8 | 20.9 | 0.00 | 1.80 | 0.79 | 72 | 1008.0 |
| 20260508151518 | 30 | 304 | 4.8 | 20.9 | 0.00 | 1.80 | 0.79 | 72 | 1008.0 |
| 20260508151318 | 30 | 294 | 4.8 | 22.5 | 0.00 | 1.80 | 0.79 | 71 | 1008.0 |
| 20260508151118 | 30 | 294 | 4.8 | 22.5 | 0.00 | 1.80 | 0.79 | 71 | 1008.0 |
| 20260508150918 | 30 | 294 | 4.8 | 22.5 | 0.00 | 1.80 | 0.79 | 71 | 1008.0 |
| 20260508150718 | 30 | 294 | 4.8 | 22.5 | 0.00 | 1.80 | 0.79 | 71 | 1008.0 |
| 20260508150518 | 30 | 294 | 4.8 | 22.5 | 0.00 | 1.80 | 0.79 | 71 | 1008.0 |
| 20260508150318 | 30 | 294 | 4.8 | 22.5 | 0.00 | 1.80 | 0.79 | 71 | 1008.0 |
| 20260508150118 | 30 | 294 | 4.8 | 22.5 | 0.00 | 1.80 | 0.79 | 71 | 1008.0 |
| 20260508145918 | 30 | 280 | 4.8 | 25.7 | 0.00 | 1.80 | 0.79 | 69 | 1008.0 |
| 20260508145518 | 30 | 280 | 4.8 | 25.7 | 0.00 | 1.80 | 0.79 | 69 | 1008.0 |
| 20260508145318 | 30 | 280 | 4.8 | 25.7 | 0.00 | 1.80 | 0.79 | 69 | 1008.0 |
| 20260508145118 | 30 | 280 | 4.8 | 25.7 | 0.00 | 1.80 | 0.79 | 69 | 1008.0 |
| 20260508144918 | 30 | 280 | 4.8 | 25.7 | 0.00 | 1.80 | 0.79 | 69 | 1008.0 |
| 20260508144718 | 30 | 280 | 4.8 | 25.7 | 0.00 | 1.80 | 0.79 | 69 | 1008.0 |
| 20260508144518 | 30 | 280 | 4.8 | 25.7 | 0.00 | 1.80 | 0.79 | 69 | 1008.0 |
| 20260508144318 | 30 | 266 | 6.4 | 29.0 | 0.00 | 1.80 | 0.79 | 66 | 1008.0 |
| 20260508144118 | 30 | 266 | 6.4 | 29.0 | 0.00 | 1.80 | 0.79 | 66 | 1008.0 |
| 20260508143918 | 30 | 266 | 6.4 | 29.0 | 0.00 | 1.80 | 0.79 | 66 | 1008.0 |
| 20260508143718 | 30 | 266 | 6.4 | 29.0 | 0.00 | 1.80 | 0.79 | 66 | 1008.0 |
| 20260508143318 | 30 | 266 | 6.4 | 29.0 | 0.00 | 1.80 | 0.79 | 66 | 1008.0 |
| 20260508143118 | 30 | 266 | 6.4 | 29.0 | 0.00 | 1.80 | 0.79 | 66 | 1008.0 |
| 20260508142918 | 30 | 257 | 9.7 | 30.6 | 0.00 | 1.80 | 0.79 | 64 | 1007.0 |
| 20260508142718 | 30 | 257 | 9.7 | 30.6 | 0.00 | 1.80 | 0.79 | 64 | 1007.0 |
| 20260508142518 | 30 | 257 | 9.7 | 30.6 | 0.00 | 1.80 | 0.79 | 64 | 1007.0 |
| 20260508142318 | 30 | 257 | 9.7 | 30.6 | 0.00 | 1.80 | 0.79 | 64 | 1007.0 |
| 20260508142118 | 30 | 257 | 9.7 | 30.6 | 0.00 | 1.80 | 0.79 | 64 | 1007.0 |
| 20260508141918 | 30 | 257 | 9.7 | 30.6 | 0.00 | 1.80 | 0.79 | 64 | 1007.0 |
| 20260508141718 | 30 | 257 | 9.7 | 30.6 | 0.00 | 1.80 | 0.79 | 64 | 1007.0 |
| 20260508141318 | 31 | 250 | 9.7 | 32.2 | 0.03 | 1.80 | 0.79 | 61 | 1007.0 |
| 20260508141118 | 31 | 250 | 9.7 | 32.2 | 0.03 | 1.80 | 0.79 | 61 | 1007.0 |
| 20260508140918 | 31 | 250 | 9.7 | 32.2 | 0.03 | 1.80 | 0.79 | 61 | 1007.0 |
| 20260508140718 | 31 | 250 | 9.7 | 32.2 | 0.03 | 1.80 | 0.79 | 61 | 1007.0 |
| 20260508140518 | 31 | 250 | 9.7 | 32.2 | 0.03 | 1.80 | 0.79 | 61 | 1007.0 |
| 20260508140318 | 31 | 250 | 9.7 | 32.2 | 0.03 | 1.80 | 0.79 | 61 | 1007.0 |
| 20260508140119 | 31 | 250 | 9.7 | 32.2 | 0.03 | 1.80 | 0.79 | 61 | 1007.0 |
| 20260508135918 | 31 | 241 | 11.3 | 33.8 | 0.03 | 1.80 | 0.79 | 59 | 1007.0 |
| 20260508135718 | 31 | 241 | 11.3 | 33.8 | 0.03 | 1.80 | 0.79 | 59 | 1007.0 |
| 20260508135519 | 31 | 241 | 11.3 | 33.8 | 0.03 | 1.80 | 0.79 | 59 | 1007.0 |
| 20260508133318 | 31 | 231 | 11.3 | 33.8 | 0.03 | 1.80 | 0.79 | 57 | 1006.0 |
| 20260508133122 | 32 | 219 | 11.3 | 35.4 | 0.03 | 1.80 | 0.79 | 56 | 1006.0 |
| 20260508132918 | 32 | 219 | 11.3 | 35.4 | 0.03 | 1.80 | 0.79 | 56 | 1006.0 |
| 20260508132718 | 32 | 219 | 11.3 | 35.4 | 0.03 | 1.80 | 0.79 | 56 | 1006.0 |
| 20260508132518 | 32 | 219 | 11.3 | 35.4 | 0.03 | 1.80 | 0.79 | 56 | 1006.0 |
| 20260508132118 | 32 | 219 | 11.3 | 35.4 | 0.03 | 1.80 | 0.79 | 56 | 1006.0 |
| 20260508131918 | 32 | 219 | 11.3 | 35.4 | 0.03 | 1.80 | 0.79 | 56 | 1006.0 |
| 20260508131718 | 32 | 219 | 11.3 | 35.4 | 0.03 | 1.80 | 0.79 | 56 | 1006.0 |
| 20260508131518 | 32 | 219 | 11.3 | 35.4 | 0.03 | 1.80 | 0.79 | 56 | 1006.0 |
| 20260508131318 | 32 | 208 | 11.3 | 37.0 | 0.00 | 1.80 | 0.79 | 54 | 1006.0 |
| 20260508131118 | 32 | 208 | 11.3 | 37.0 | 0.00 | 1.80 | 0.79 | 54 | 1006.0 |
| 20260508130918 | 32 | 208 | 11.3 | 37.0 | 0.00 | 1.80 | 0.79 | 54 | 1006.0 |
| 20260508130718 | 32 | 208 | 11.3 | 37.0 | 0.00 | 1.80 | 0.79 | 54 | 1006.0 |
| 20260508130518 | 32 | 208 | 11.3 | 37.0 | 0.00 | 1.80 | 0.79 | 54 | 1006.0 |
| 20260508130319 | 32 | 208 | 11.3 | 37.0 | 0.00 | 1.80 | 0.79 | 54 | 1006.0 |
| 20260508125918 | 32 | 200 | 12.9 | 41.8 | 0.00 | 1.80 | 0.79 | 53 | 1006.0 |
| 20260508125718 | 32 | 200 | 12.9 | 41.8 | 0.00 | 1.80 | 0.79 | 53 | 1006.0 |
| 20260508125518 | 32 | 200 | 12.9 | 41.8 | 0.00 | 1.80 | 0.79 | 53 | 1006.0 |
| 20260508125318 | 32 | 200 | 12.9 | 41.8 | 0.00 | 1.80 | 0.79 | 53 | 1006.0 |
| 20260508125118 | 32 | 200 | 12.9 | 41.8 | 0.00 | 1.80 | 0.79 | 53 | 1006.0 |
| 20260508124918 | 32 | 200 | 12.9 | 41.8 | 0.00 | 1.80 | 0.79 | 53 | 1006.0 |
| 20260508124718 | 32 | 200 | 12.9 | 41.8 | 0.00 | 1.80 | 0.79 | 53 | 1006.0 |
| 20260508124518 | 32 | 200 | 12.9 | 41.8 | 0.00 | 1.80 | 0.79 | 53 | 1006.0 |
| 20260508124318 | 32 | 196 | 14.5 | 48.3 | 0.00 | 1.80 | 0.79 | 53 | 1005.0 |
| 20260508123922 | 32 | 196 | 14.5 | 48.3 | 0.00 | 1.80 | 0.79 | 53 | 1005.0 |
| 20260508123720 | 32 | 189 | 25.7 | 48.3 | 0.00 | 1.80 | 0.79 | 53 | 1005.0 |
| 20260508123518 | 32 | 189 | 25.7 | 48.3 | 0.00 | 1.80 | 0.79 | 53 | 1005.0 |
| 20260508123318 | 32 | 189 | 25.7 | 48.3 | 0.00 | 1.80 | 0.79 | 53 | 1005.0 |
| 20260508123118 | 32 | 189 | 25.7 | 48.3 | 0.00 | 1.80 | 0.79 | 53 | 1005.0 |
| 20260508122918 | 32 | 186 | 20.9 | 53.1 | 0.00 | 1.80 | 0.79 | 52 | 1005.0 |
| 20260508122718 | 32 | 184 | 20.9 | 53.1 | 0.00 | 1.80 | 0.79 | 52 | 1005.0 |
| 20260508122518 | 32 | 184 | 20.9 | 53.1 | 0.00 | 1.80 | 0.79 | 52 | 1005.0 |
| 20260508122318 | 32 | 184 | 20.9 | 53.1 | 0.00 | 1.80 | 0.79 | 52 | 1005.0 |
| 20260508121918 | 32 | 184 | 20.9 | 54.7 | 0.00 | 1.80 | 0.79 | 52 | 1005.0 |
| 20260508121718 | 32 | 184 | 20.9 | 54.7 | 0.00 | 1.80 | 0.79 | 52 | 1005.0 |
| 20260508121518 | 32 | 184 | 20.9 | 54.7 | 0.00 | 1.80 | 0.79 | 52 | 1005.0 |
| 20260508121318 | 32 | 180 | 17.7 | 56.3 | 0.00 | 1.80 | 0.79 | 52 | 1005.0 |
| 20260508121118 | 32 | 180 | 17.7 | 56.3 | 0.00 | 1.80 | 0.79 | 52 | 1005.0 |
| 20260508120918 | 33 | 180 | 17.7 | 56.3 | 0.00 | 1.80 | 0.79 | 50 | 1005.0 |
| 20260508120718 | 33 | 180 | 17.7 | 56.3 | 0.00 | 1.80 | 0.79 | 50 | 1005.0 |
| 20260508120518 | 33 | 180 | 17.7 | 56.3 | 0.00 | 1.80 | 0.79 | 50 | 1005.0 |
| 20260508120318 | 33 | 180 | 17.7 | 56.3 | 0.00 | 1.80 | 0.79 | 50 | 1005.0 |
| 20260508120119 | 33 | 180 | 17.7 | 56.3 | 0.00 | 1.80 | 0.79 | 50 | 1005.0 |
| 20260508115718 | 33 | 172 | 16.1 | 61.2 | 0.00 | 4.93 | 1.80 | 48 | 1004.0 |
| 20260508115518 | 33 | 172 | 16.1 | 61.2 | 0.00 | 4.93 | 1.80 | 48 | 1004.0 |
| 20260508115318 | 33 | 172 | 16.1 | 61.2 | 0.00 | 4.93 | 1.80 | 48 | 1004.0 |
| 20260508115118 | 33 | 172 | 16.1 | 61.2 | 0.00 | 4.93 | 1.80 | 48 | 1004.0 |
| 20260508114918 | 33 | 172 | 16.1 | 61.2 | 0.00 | 4.93 | 1.80 | 48 | 1004.0 |
| 20260508114718 | 33 | 172 | 16.1 | 61.2 | 0.00 | 4.93 | 1.80 | 48 | 1004.0 |
| 20260508114518 | 33 | 172 | 16.1 | 61.2 | 0.00 | 4.93 | 1.80 | 48 | 1004.0 |
| 20260508114318 | 33 | 157 | 14.5 | 66.0 | 0.00 | 4.93 | 1.80 | 49 | 1004.0 |
| 20260508114118 | 33 | 157 | 14.5 | 66.0 | 0.00 | 4.93 | 1.80 | 49 | 1004.0 |
| 20260508113919 | 33 | 157 | 14.5 | 66.0 | 0.00 | 4.93 | 1.80 | 49 | 1004.0 |
| 20260508113518 | 33 | 157 | 14.5 | 66.0 | 0.00 | 4.93 | 1.80 | 49 | 1004.0 |
| 20260508113318 | 33 | 157 | 14.5 | 66.0 | 0.00 | 4.93 | 1.80 | 49 | 1004.0 |
| 20260508113118 | 33 | 157 | 14.5 | 66.0 | 0.00 | 4.93 | 1.80 | 49 | 1004.0 |
| 20260508112918 | 33 | 141 | 12.9 | 72.4 | 0.00 | 4.93 | 1.80 | 49 | 1004.0 |
| 20260508112718 | 33 | 141 | 12.9 | 72.4 | 0.00 | 4.93 | 1.80 | 49 | 1004.0 |
| 20260508112518 | 33 | 141 | 12.9 | 72.4 | 0.00 | 4.93 | 1.80 | 49 | 1004.0 |
| 20260508112318 | 33 | 141 | 12.9 | 72.4 | 0.00 | 4.93 | 1.80 | 49 | 1004.0 |
| 20260508112118 | 33 | 141 | 12.9 | 72.4 | 0.00 | 4.93 | 1.80 | 49 | 1004.0 |
| 20260508111918 | 33 | 141 | 12.9 | 72.4 | 0.00 | 4.93 | 1.80 | 49 | 1004.0 |
| 20260508111518 | 33 | 141 | 12.9 | 72.4 | 0.00 | 4.93 | 1.80 | 49 | 1004.0 |
| 20260508111318 | 33 | 123 | 14.5 | 74.0 | 0.00 | 4.93 | 1.80 | 49 | 1004.0 |
| 20260508111118 | 33 | 123 | 14.5 | 74.0 | 0.00 | 4.93 | 1.80 | 49 | 1004.0 |
| 20260508110922 | 33 | 123 | 14.5 | 74.0 | 0.00 | 4.93 | 1.80 | 49 | 1004.0 |
| 20260508110718 | 33 | 123 | 14.5 | 74.0 | 0.00 | 4.93 | 1.80 | 49 | 1004.0 |
| 20260508110518 | 33 | 123 | 14.5 | 74.0 | 0.00 | 4.93 | 1.80 | 49 | 1004.0 |
| 20260508110318 | 33 | 123 | 14.5 | 74.0 | 0.00 | 4.93 | 1.80 | 49 | 1004.0 |
| 20260508110118 | 33 | 123 | 14.5 | 74.0 | 0.00 | 4.93 | 1.80 | 49 | 1004.0 |
| 20260508105918 | 33 | 108 | 17.7 | 74.0 | 0.00 | 4.93 | 1.80 | 47 | 1004.0 |
| 20260508105718 | 33 | 108 | 17.7 | 74.0 | 0.00 | 4.93 | 1.80 | 47 | 1004.0 |
| 20260508105318 | 33 | 108 | 17.7 | 74.0 | 0.00 | 4.93 | 1.80 | 47 | 1004.0 |
| 20260508105118 | 33 | 108 | 17.7 | 74.0 | 0.00 | 4.93 | 1.80 | 47 | 1004.0 |
| 20260508104918 | 33 | 108 | 17.7 | 74.0 | 0.00 | 4.93 | 1.80 | 47 | 1004.0 |
| 20260508104718 | 33 | 108 | 17.7 | 74.0 | 0.00 | 4.93 | 1.80 | 47 | 1004.0 |
| 20260508104518 | 33 | 108 | 17.7 | 74.0 | 0.00 | 4.93 | 1.80 | 47 | 1004.0 |
| 20260508104318 | 35 | 97 | 20.9 | 70.8 | 0.00 | 4.93 | 1.80 | 44 | 1004.0 |
| 20260508104118 | 35 | 97 | 20.9 | 70.8 | 0.00 | 4.93 | 1.80 | 44 | 1004.0 |
| 20260508103918 | 35 | 97 | 20.9 | 70.8 | 0.00 | 4.93 | 1.80 | 44 | 1004.0 |
| 20260508103718 | 35 | 97 | 20.9 | 70.8 | 0.00 | 4.93 | 1.80 | 44 | 1004.0 |
| 20260508103318 | 35 | 97 | 20.9 | 70.8 | 0.00 | 4.93 | 1.80 | 44 | 1004.0 |
| 20260508103118 | 35 | 97 | 20.9 | 70.8 | 0.00 | 4.93 | 1.80 | 44 | 1004.0 |
| 20260508102918 | 35 | 91 | 25.7 | 66.0 | 0.00 | 4.93 | 1.80 | 42 | 1003.0 |
| 20260508102718 | 35 | 91 | 25.7 | 66.0 | 0.00 | 4.93 | 1.80 | 42 | 1003.0 |
| 20260508102518 | 35 | 91 | 25.7 | 66.0 | 0.00 | 4.93 | 1.80 | 42 | 1003.0 |
| 20260508102318 | 35 | 91 | 25.7 | 66.0 | 0.00 | 4.93 | 1.80 | 42 | 1003.0 |
| 20260508102118 | 35 | 91 | 25.7 | 66.0 | 0.00 | 4.93 | 1.80 | 42 | 1003.0 |
| 20260508101918 | 35 | 91 | 25.7 | 66.0 | 0.00 | 4.93 | 1.80 | 42 | 1003.0 |
| 20260508101718 | 35 | 91 | 25.7 | 66.0 | 0.00 | 4.93 | 1.80 | 42 | 1003.0 |
| 20260508101527 | 35 | 91 | 25.7 | 66.0 | 0.00 | 4.93 | 1.80 | 42 | 1003.0 |
| 20260508101118 | 36 | 88 | 27.4 | 62.8 | 0.00 | 4.93 | 1.80 | 40 | 1003.0 |
| 20260508100918 | 36 | 88 | 27.4 | 62.8 | 0.00 | 4.93 | 1.80 | 40 | 1003.0 |
| 20260508100718 | 36 | 88 | 27.4 | 62.8 | 0.00 | 4.93 | 1.80 | 40 | 1003.0 |
| 20260508100519 | 36 | 88 | 27.4 | 62.8 | 0.00 | 4.93 | 1.80 | 40 | 1003.0 |
| 20260508100318 | 36 | 88 | 27.4 | 62.8 | 0.00 | 4.93 | 1.80 | 40 | 1003.0 |
| 20260508100118 | 36 | 88 | 27.4 | 62.8 | 0.00 | 4.93 | 1.80 | 40 | 1003.0 |
| 20260508095918 | 36 | 85 | 25.7 | 61.2 | 0.00 | 4.93 | 1.80 | 39 | 1003.0 |
| 20260508095718 | 36 | 85 | 25.7 | 61.2 | 0.00 | 4.93 | 1.80 | 39 | 1003.0 |
| 20260508095518 | 36 | 85 | 25.7 | 61.2 | 0.00 | 4.93 | 1.80 | 39 | 1003.0 |
| 20260508095118 | 36 | 85 | 25.7 | 61.2 | 0.00 | 4.93 | 1.80 | 39 | 1003.0 |
| 20260508094918 | 36 | 85 | 25.7 | 61.2 | 0.00 | 4.93 | 1.80 | 39 | 1003.0 |
| 20260508094718 | 36 | 85 | 25.7 | 61.2 | 0.00 | 4.93 | 1.80 | 39 | 1003.0 |
| 20260508094518 | 36 | 85 | 25.7 | 61.2 | 0.00 | 4.93 | 1.80 | 39 | 1003.0 |
| 20260508094318 | 36 | 83 | 22.5 | 59.5 | 0.00 | 4.93 | 1.80 | 38 | 1004.0 |
| 20260508094118 | 36 | 83 | 22.5 | 59.5 | 0.00 | 4.93 | 1.80 | 38 | 1004.0 |
| 20260508093918 | 36 | 83 | 22.5 | 59.5 | 0.00 | 4.93 | 1.80 | 38 | 1004.0 |
| 20260508093718 | 36 | 83 | 22.5 | 59.5 | 0.00 | 4.93 | 1.80 | 38 | 1004.0 |
| 20260508093519 | 36 | 83 | 22.5 | 59.5 | 0.00 | 4.93 | 1.80 | 38 | 1004.0 |
| 20260508093318 | 36 | 83 | 22.5 | 59.5 | 0.00 | 4.93 | 1.80 | 38 | 1004.0 |
| 20260508092918 | 37 | 82 | 19.3 | 59.5 | 0.00 | 4.93 | 1.80 | 38 | 1004.0 |
| 20260508092718 | 37 | 82 | 19.3 | 59.5 | 0.00 | 4.93 | 1.80 | 38 | 1004.0 |
| 20260508092518 | 37 | 82 | 19.3 | 59.5 | 0.00 | 4.93 | 1.80 | 38 | 1004.0 |
| 20260508092318 | 37 | 82 | 19.3 | 59.5 | 0.00 | 4.93 | 1.80 | 38 | 1004.0 |
| 20260508092118 | 37 | 82 | 19.3 | 59.5 | 0.00 | 4.93 | 1.80 | 38 | 1004.0 |
| 20260508091919 | 37 | 82 | 19.3 | 59.5 | 0.00 | 4.93 | 1.80 | 38 | 1004.0 |
| 20260508091719 | 37 | 82 | 19.3 | 59.5 | 0.00 | 4.93 | 1.80 | 38 | 1004.0 |
| 20260508091518 | 37 | 82 | 19.3 | 59.5 | 0.00 | 4.93 | 1.80 | 38 | 1004.0 |
| 20260508091318 | 37 | 82 | 14.5 | 59.5 | 0.00 | 4.93 | 1.80 | 38 | 1004.0 |
| 20260508091119 | 37 | 82 | 14.5 | 59.5 | 0.00 | 4.93 | 1.80 | 38 | 1004.0 |
| 20260508090718 | 37 | 82 | 14.5 | 59.5 | 0.00 | 4.93 | 1.80 | 38 | 1004.0 |
| 20260508090518 | 37 | 82 | 14.5 | 59.5 | 0.00 | 4.93 | 1.80 | 38 | 1004.0 |
| 20260508090318 | 37 | 82 | 14.5 | 59.5 | 0.00 | 4.93 | 1.80 | 38 | 1004.0 |
| 20260508090118 | 37 | 82 | 14.5 | 59.5 | 0.00 | 4.93 | 1.80 | 38 | 1004.0 |
| 20260508085918 | 37 | 85 | 11.3 | 59.5 | 0.00 | 4.93 | 1.80 | 39 | 1004.0 |
| 20260508085718 | 37 | 85 | 11.3 | 59.5 | 0.00 | 4.93 | 1.80 | 39 | 1004.0 |
| 20260508085518 | 37 | 85 | 11.3 | 59.5 | 0.00 | 4.93 | 1.80 | 39 | 1004.0 |
| 20260508085318 | 37 | 85 | 11.3 | 59.5 | 0.00 | 4.93 | 1.80 | 39 | 1004.0 |
| 20260508085118 | 37 | 85 | 11.3 | 59.5 | 0.00 | 4.93 | 1.80 | 39 | 1004.0 |
| 20260508084718 | 37 | 85 | 11.3 | 59.5 | 0.00 | 4.93 | 1.80 | 39 | 1004.0 |
| 20260508084518 | 37 | 85 | 11.3 | 59.5 | 0.00 | 4.93 | 1.80 | 39 | 1004.0 |
| 20260508084318 | 36 | 97 | 9.7 | 57.9 | 0.00 | 4.93 | 1.80 | 40 | 1005.0 |
| 20260508084118 | 36 | 97 | 9.7 | 57.9 | 0.00 | 4.93 | 1.80 | 40 | 1005.0 |
| 20260508083918 | 36 | 97 | 9.7 | 57.9 | 0.00 | 4.93 | 1.80 | 40 | 1005.0 |
| 20260508083718 | 36 | 97 | 9.7 | 57.9 | 0.00 | 4.93 | 1.80 | 40 | 1005.0 |
| 20260508083518 | 36 | 97 | 9.7 | 57.9 | 0.00 | 4.93 | 1.80 | 40 | 1005.0 |
| 20260508083318 | 36 | 97 | 9.7 | 57.9 | 0.00 | 4.93 | 1.80 | 40 | 1005.0 |
| 20260508083118 | 36 | 97 | 9.7 | 57.9 | 0.00 | 4.93 | 1.80 | 40 | 1005.0 |
| 20260508082918 | 36 | 113 | 6.4 | 59.5 | 0.00 | 4.93 | 1.80 | 41 | 1005.0 |
| 20260508082518 | 36 | 113 | 6.4 | 59.5 | 0.00 | 4.93 | 1.80 | 41 | 1005.0 |
| 20260508082318 | 36 | 113 | 6.4 | 59.5 | 0.00 | 4.93 | 1.80 | 41 | 1005.0 |
| 20260508082118 | 36 | 113 | 6.4 | 59.5 | 0.00 | 4.93 | 1.80 | 41 | 1005.0 |
| 20260508081918 | 36 | 113 | 6.4 | 59.5 | 0.00 | 4.93 | 1.80 | 41 | 1005.0 |
| 20260508081718 | 36 | 113 | 6.4 | 59.5 | 0.00 | 4.93 | 1.80 | 41 | 1005.0 |
| 20260508081518 | 36 | 113 | 6.4 | 59.5 | 0.00 | 4.93 | 1.80 | 41 | 1005.0 |
| 20260508081318 | 36 | 122 | 4.8 | 59.5 | 0.00 | 4.93 | 1.80 | 41 | 1006.0 |
| 20260508081118 | 36 | 122 | 4.8 | 59.5 | 0.00 | 4.93 | 1.80 | 41 | 1006.0 |
| 20260508080918 | 36 | 122 | 4.8 | 59.5 | 0.00 | 4.93 | 1.80 | 41 | 1006.0 |
| 20260508080719 | 36 | 122 | 4.8 | 59.5 | 0.00 | 4.93 | 1.80 | 41 | 1006.0 |
| 20260508080318 | 36 | 122 | 4.8 | 59.5 | 0.00 | 4.93 | 1.80 | 41 | 1006.0 |
| 20260508080118 | 36 | 122 | 4.8 | 59.5 | 0.00 | 4.93 | 1.80 | 41 | 1006.0 |
| 20260508075918 | 36 | 112 | 1.6 | 62.8 | 0.00 | 4.93 | 1.80 | 42 | 1006.0 |
| 20260508075718 | 36 | 112 | 1.6 | 62.8 | 0.00 | 4.93 | 1.80 | 42 | 1006.0 |
| 20260508075518 | 36 | 112 | 1.6 | 62.8 | 0.00 | 4.93 | 1.80 | 42 | 1006.0 |
| 20260508075323 | 36 | 112 | 1.6 | 62.8 | 0.00 | 4.93 | 1.80 | 42 | 1006.0 |
| 20260508075118 | 36 | 112 | 1.6 | 62.8 | 0.00 | 4.93 | 1.80 | 42 | 1006.0 |
| 20260508074918 | 36 | 112 | 1.6 | 62.8 | 0.00 | 4.93 | 1.80 | 42 | 1006.0 |
| 20260508074719 | 36 | 112 | 1.6 | 62.8 | 0.00 | 4.93 | 1.80 | 42 | 1006.0 |
| 20260508074319 | 35 | 27 | 1.6 | 67.6 | 0.00 | 4.93 | 1.80 | 43 | 1006.0 |
| 20260508074118 | 35 | 27 | 1.6 | 67.6 | 0.00 | 4.93 | 1.80 | 43 | 1006.0 |
| 20260508073918 | 35 | 27 | 1.6 | 67.6 | 0.00 | 4.93 | 1.80 | 43 | 1006.0 |
| 20260508073718 | 35 | 27 | 1.6 | 67.6 | 0.00 | 4.93 | 1.80 | 43 | 1006.0 |
| 20260508073518 | 35 | 27 | 1.6 | 67.6 | 0.00 | 4.93 | 1.80 | 43 | 1006.0 |
| 20260508073318 | 35 | 27 | 1.6 | 67.6 | 0.00 | 4.93 | 1.80 | 43 | 1006.0 |
| 20260508073118 | 35 | 27 | 1.6 | 67.6 | 0.00 | 4.93 | 1.80 | 43 | 1006.0 |
| 20260508072918 | 35 | 360 | 4.8 | 72.4 | 0.00 | 4.93 | 1.80 | 44 | 1007.0 |
| 20260508072718 | 35 | 360 | 4.8 | 72.4 | 0.00 | 4.93 | 1.80 | 44 | 1007.0 |
| 20260508072519 | 35 | 360 | 4.8 | 72.4 | 0.00 | 4.93 | 1.80 | 44 | 1007.0 |
| 20260508072118 | 35 | 360 | 4.8 | 72.4 | 0.00 | 4.93 | 1.80 | 44 | 1007.0 |
| 20260508071918 | 35 | 360 | 4.8 | 72.4 | 0.00 | 4.93 | 1.80 | 44 | 1007.0 |
| 20260508071718 | 35 | 360 | 4.8 | 72.4 | 0.00 | 4.93 | 1.80 | 44 | 1007.0 |
| 20260508071518 | 35 | 360 | 4.8 | 72.4 | 0.00 | 4.93 | 1.80 | 44 | 1007.0 |
| 20260508071318 | 35 | 350 | 9.7 | 75.6 | 0.00 | 4.93 | 1.80 | 44 | 1007.0 |
| 20260508071118 | 35 | 350 | 9.7 | 75.6 | 0.00 | 4.93 | 1.80 | 44 | 1007.0 |
| 20260508070918 | 35 | 350 | 9.7 | 75.6 | 0.00 | 4.93 | 1.80 | 44 | 1007.0 |
| 20260508070718 | 35 | 350 | 9.7 | 75.6 | 0.00 | 4.93 | 1.80 | 44 | 1007.0 |
| 20260508070519 | 35 | 350 | 9.7 | 75.6 | 0.00 | 4.93 | 1.80 | 44 | 1007.0 |
| 20260508070118 | 35 | 350 | 9.7 | 75.6 | 0.00 | 4.93 | 1.80 | 44 | 1007.0 |
| 20260508065918 | 35 | 344 | 11.3 | 77.2 | 0.00 | 4.93 | 1.80 | 46 | 1007.0 |
| 20260508065718 | 35 | 344 | 11.3 | 77.2 | 0.00 | 4.93 | 1.80 | 46 | 1007.0 |
| 20260508065518 | 35 | 344 | 11.3 | 77.2 | 0.00 | 4.93 | 1.80 | 46 | 1007.0 |
| 20260508065318 | 35 | 344 | 11.3 | 77.2 | 0.00 | 4.93 | 1.80 | 46 | 1007.0 |
| 20260508065118 | 35 | 304 | 3.2 | 77.2 | 0.00 | 4.93 | 1.80 | 46 | 1007.0 |
| 20260508064918 | 35 | 304 | 3.2 | 77.2 | 0.00 | 4.93 | 1.80 | 46 | 1007.0 |
| 20260508064718 | 35 | 304 | 3.2 | 77.2 | 0.00 | 4.93 | 1.80 | 46 | 1007.0 |
| 20260508064518 | 35 | 304 | 3.2 | 77.2 | 0.00 | 4.93 | 1.80 | 46 | 1007.0 |
| 20260508064118 | 34 | 270 | 0.0 | 77.2 | 0.00 | 4.93 | 1.80 | 47 | 1007.0 |
| 20260508063918 | 34 | 270 | 0.0 | 77.2 | 0.00 | 4.93 | 1.80 | 47 | 1007.0 |
| 20260508063718 | 34 | 270 | 0.0 | 77.2 | 0.00 | 4.93 | 1.80 | 47 | 1007.0 |
| 20260508063518 | 34 | 270 | 0.0 | 54.7 | 0.00 | 4.93 | 1.80 | 47 | 1007.0 |
| 20260508063318 | 34 | 270 | 0.0 | 54.7 | 0.00 | 4.93 | 1.80 | 47 | 1007.0 |
| 20260508063119 | 34 | 270 | 0.0 | 54.7 | 0.00 | 4.93 | 1.80 | 47 | 1007.0 |
| 20260508062918 | 33 | 233 | 1.6 | 54.7 | 0.00 | 4.93 | 1.80 | 48 | 1008.0 |
| 20260508062718 | 33 | 233 | 1.6 | 54.7 | 0.00 | 4.93 | 1.80 | 48 | 1008.0 |
| 20260508062518 | 33 | 233 | 1.6 | 54.7 | 0.00 | 4.93 | 1.80 | 48 | 1008.0 |
| 20260508062320 | 33 | 233 | 1.6 | 54.7 | 0.00 | 4.93 | 1.80 | 49 | 1008.0 |
| 20260508061918 | 33 | 233 | 1.6 | 54.7 | 0.00 | 0.23 | 0.74 | 50 | 1008.0 |
| 20260508061718 | 33 | 233 | 1.6 | 54.7 | 0.00 | 0.23 | 0.74 | 50 | 1008.0 |
| 20260508061518 | 33 | 233 | 1.6 | 54.7 | 0.00 | 0.23 | 0.74 | 50 | 1008.0 |
| 20260508061318 | 33 | 240 | 3.2 | 56.3 | 0.00 | 0.23 | 0.74 | 51 | 1008.0 |
| 20260508061118 | 33 | 240 | 3.2 | 56.3 | 0.00 | 0.23 | 0.74 | 51 | 1008.0 |
| 20260508060918 | 33 | 240 | 3.2 | 56.3 | 0.00 | 0.23 | 0.74 | 51 | 1008.0 |
| 20260508060718 | 33 | 240 | 3.2 | 56.3 | 0.00 | 0.23 | 0.74 | 51 | 1008.0 |
| 20260508060518 | 33 | 240 | 3.2 | 56.3 | 0.00 | 0.23 | 0.74 | 51 | 1008.0 |
| 20260508060318 | 33 | 240 | 3.2 | 56.3 | 0.00 | 0.23 | 0.74 | 51 | 1008.0 |
| 20260508055918 | 33 | 264 | 4.8 | 59.5 | 0.00 | 0.23 | 0.74 | 51 | 1009.0 |
| 20260508055718 | 33 | 264 | 4.8 | 59.5 | 0.00 | 0.23 | 0.74 | 51 | 1009.0 |
| 20260508055518 | 33 | 264 | 4.8 | 59.5 | 0.00 | 0.23 | 0.74 | 51 | 1009.0 |
| 20260508055318 | 33 | 264 | 4.8 | 59.5 | 0.00 | 0.23 | 0.74 | 51 | 1009.0 |
| 20260508055118 | 33 | 264 | 4.8 | 59.5 | 0.00 | 0.23 | 0.74 | 51 | 1009.0 |
| 20260508054918 | 33 | 264 | 4.8 | 59.5 | 0.00 | 0.23 | 0.74 | 51 | 1009.0 |
| 20260508054718 | 33 | 264 | 4.8 | 59.5 | 0.00 | 0.23 | 0.74 | 51 | 1009.0 |
| 20260508054521 | 33 | 264 | 4.8 | 59.5 | 0.00 | 0.23 | 0.74 | 51 | 1009.0 |
| 20260508054318 | 32 | 292 | 4.8 | 61.2 | 0.00 | 0.23 | 0.74 | 52 | 1009.0 |
| 20260508054119 | 32 | 292 | 4.8 | 61.2 | 0.00 | 0.23 | 0.74 | 52 | 1009.0 |
| 20260508053718 | 32 | 292 | 4.8 | 61.2 | 0.00 | 0.23 | 0.74 | 52 | 1009.0 |
| 20260508053518 | 32 | 292 | 4.8 | 61.2 | 0.00 | 0.23 | 0.74 | 52 | 1009.0 |
| 20260508053318 | 32 | 292 | 4.8 | 61.2 | 0.00 | 0.23 | 0.74 | 52 | 1009.0 |
| 20260508053118 | 32 | 292 | 4.8 | 61.2 | 0.00 | 0.23 | 0.74 | 52 | 1009.0 |
| 20260508052918 | 32 | 318 | 8.0 | 64.4 | 0.00 | 0.23 | 0.74 | 53 | 1009.0 |
| 20260508052718 | 32 | 318 | 8.0 | 64.4 | 0.00 | 0.23 | 0.74 | 53 | 1009.0 |
| 20260508052518 | 32 | 318 | 8.0 | 64.4 | 0.00 | 0.23 | 0.74 | 53 | 1009.0 |
| 20260508052318 | 32 | 318 | 8.0 | 64.4 | 0.00 | 0.23 | 0.74 | 53 | 1009.0 |
| 20260508052118 | 32 | 318 | 8.0 | 64.4 | 0.00 | 0.23 | 0.74 | 53 | 1009.0 |
| 20260508051919 | 32 | 318 | 8.0 | 64.4 | 0.00 | 0.23 | 0.74 | 53 | 1009.0 |
| 20260508051518 | 32 | 318 | 8.0 | 64.4 | 0.00 | 0.23 | 0.74 | 53 | 1009.0 |
| 20260508051318 | 32 | 325 | 9.7 | 66.0 | 0.00 | 0.23 | 0.74 | 54 | 1009.0 |
| 20260508051118 | 32 | 325 | 9.7 | 66.0 | 0.00 | 0.23 | 0.74 | 54 | 1009.0 |
| 20260508050919 | 32 | 325 | 9.7 | 66.0 | 0.00 | 0.23 | 0.74 | 54 | 1009.0 |
| 20260508050718 | 32 | 325 | 9.7 | 66.0 | 0.00 | 0.23 | 0.74 | 54 | 1009.0 |
| 20260508050519 | 32 | 325 | 9.7 | 66.0 | 0.00 | 0.23 | 0.74 | 54 | 1009.0 |
| 20260508050319 | 32 | 325 | 9.7 | 66.0 | 0.00 | 0.23 | 0.74 | 54 | 1009.0 |
| 20260508050119 | 32 | 325 | 9.7 | 66.0 | 0.00 | 0.23 | 0.74 | 54 | 1009.0 |
| 20260508045919 | 31 | 330 | 12.9 | 64.4 | 0.00 | 0.23 | 0.74 | 56 | 1009.0 |
| 20260508045518 | 31 | 330 | 12.9 | 64.4 | 0.00 | 0.23 | 0.74 | 56 | 1009.0 |